CST,Max TemperatureF,Mean TemperatureF,Min TemperatureF,Max Dew PointF,MeanDew PointF,Min DewpointF,Max Humidity, Mean Humidity, Min Humidity, Max Sea Level PressureIn, Mean Sea Level PressureIn, Min Sea Level PressureIn, Max VisibilityMiles, Mean VisibilityMiles, Min VisibilityMiles, Max Wind SpeedMPH, Mean Wind SpeedMPH, Max Gust SpeedMPH,PrecipitationIn, CloudCover, Events, WindDirDegrees
2013-12-1,68,60,51,57,56,52,100,84,64,30.21,30.09,29.95,10,10,7,17,6,18,0.00,4,,199
2013-12-2,78,61,44,55,46,37,100,68,23,29.94,29.80,29.69,10,9,2,13,4,18,0.00,0,,265
2013-12-3,82,62,42,46,40,36,93,50,19,29.71,29.65,29.59,10,10,9,13,4,,0.00,0,,239
2013-12-4,78,69,59,63,53,39,100,62,40,29.83,29.72,29.66,10,8,0,12,7,,0.00,0,,182
2013-12-5,60,45,30,61,29,21,100,73,56,30.16,30.07,29.84,10,9,2,21,12,29,0.00,8,,358
2013-12-6,32,29,26,30,26,21,93,86,75,30.50,30.35,30.12,10,9,3,10,2,,0.02,6,Rain-Thunderstorm,350
2013-12-7,26,24,21,23,20,18,93,83,74,30.53,30.42,30.29,10,10,7,0,0,,0.00,6,,-1
2013-12-8,39,32,26,36,31,23,100,94,80,30.26,30.15,30.05,10,4,0,8,3,,0.00,7,Fog,186
2013-12-9,35,34,32,36,32,28,100,97,81,30.43,30.23,30.10,10,3,0,14,5,18,0.00,8,Fog,28
2013-12-10,44,34,23,27,21,18,86,67,34,30.54,30.43,30.35,10,10,7,10,5,,0.00,0,,340
2013-12-11,53,40,26,30,27,23,93,67,38,30.60,30.44,30.34,10,10,7,12,3,,0.00,0,,347
2013-12-12,48,38,28,34,30,27,93,75,50,30.63,30.51,30.31,10,8,3,6,2,,0.00,0,,155
2013-12-13,48,44,39,48,40,32,100,84,61,30.30,30.05,29.87,10,7,1,10,6,16,0.08,6,Rain,175
2013-12-14,48,40,33,46,36,30,100,77,61,30.37,30.13,29.84,10,8,4,18,8,24,0.00,2,,324
2013-12-15,60,44,28,32,30,25,93,63,29,30.40,30.33,30.27,10,10,8,7,3,,0.00,0,,244
2013-12-16,66,49,32,36,32,28,93,58,28,30.30,30.25,30.18,10,10,5,12,3,,0.00,0,,203
2013-12-17,71,52,33,39,34,32,93,59,23,30.34,30.28,30.23,10,10,5,7,1,,0.00,0,,216
2013-12-18,69,51,33,48,42,32,93,70,46,30.30,30.19,30.04,10,10,2,14,4,21,0.00,0,,180
2013-12-19,73,64,55,63,56,50,94,76,53,30.04,29.90,29.81,10,10,10,23,11,36,0.00,4,,180
2013-12-20,71,55,39,64,58,39,100,85,73,29.87,29.81,29.75,10,8,1,14,9,22,0.00,7,,189
2013-12-21,64,50,35,55,43,36,100,83,45,29.82,29.70,29.61,10,8,1,17,8,25,0.93,4,Rain-Thunderstorm,264
2013-12-22,51,42,32,39,32,28,93,70,53,30.40,30.15,29.82,10,10,10,17,10,24,0.00,1,,333
2013-12-23,51,40,28,32,28,25,93,74,35,30.56,30.48,30.40,10,10,9,5,1,,0.00,0,,358
2013-12-24,55,42,28,34,30,27,100,70,36,30.54,30.42,30.28,10,9,4,14,3,17,0.00,0,,154
2013-12-25,60,46,32,45,36,30,100,77,45,30.45,30.34,30.27,10,9,6,14,4,18,0.00,3,,276
2013-12-26,53,42,32,36,34,32,100,78,44,30.47,30.41,30.34,10,7,2,7,3,,0.00,0,,328
2013-12-27,55,44,32,39,35,32,100,76,44,30.47,30.40,30.35,10,9,5,5,1,,0.00,0,,251
2013-12-28,60,46,32,45,38,32,100,72,45,30.34,30.16,30.01,10,8,2,12,4,,0.00,2,,188
2013-12-29,53,42,32,46,40,27,93,86,72,30.32,30.12,29.97,10,9,2,20,8,29,0.00,7,,312
2013-12-30,44,36,28,28,25,23,87,69,46,30.43,30.33,30.27,10,10,10,12,6,18,0.00,1,,338
2013-12-31,55,42,30,30,29,23,93,68,36,30.48,30.36,30.23,10,10,10,10,2,,0.00,0,,157